Time;durP1;ratioP1;P1;durP2;ratioP2;P2;SDS_P1;SDS_P2;PMS_P1;PMS_P2;Temp;Humidity;BMP_temperature;BMP_pressure;BME280_temperature;BME280_humidity;BME280_pressure;Samples;Min_cycle;Max_cycle;Signal;HPM_P1;HPM_P2
2023/09/27 00:11:49;;;;;;;18.58;9.75;;;;;;;23.80;49.16;101150.59;31492919;28;20044;-83
2023/09/27 00:26:52;;;;;;;11.75;8.40;;;;;;;23.36;49.88;101162.56;31486135;28;20551;-84
2023/09/27 00:41:54;;;;;;;18.65;8.15;;;;;;;23.16;50.42;101168.03;31485714;28;20466;-83
2023/09/27 00:56:56;;;;;;;15.23;8.68;;;;;;;22.95;51.69;101163.66;31493092;28;20147;-83
2023/09/27 01:11:59;;;;;;;11.80;8.35;;;;;;;22.73;52.38;101162.00;31489285;28;20152;-83
2023/09/27 01:27:04;;;;;;;16.08;8.02;;;;;;;22.87;53.26;101157.00;31518186;28;20772;-83
2023/09/27 01:42:08;;;;;;;17.70;8.55;;;;;;;22.81;53.72;101162.44;31526265;28;20040;-82
2023/09/27 01:57:10;;;;;;;17.65;8.80;;;;;;;22.52;54.63;101171.44;31516624;28;20052;-82
2023/09/27 02:12:12;;;;;;;15.85;8.20;;;;;;;22.26;55.40;101176.72;31512751;28;20105;-83
2023/09/27 02:27:15;;;;;;;14.57;8.88;;;;;;;22.09;56.19;101179.19;31504630;28;20649;-82
2023/09/27 02:42:17;;;;;;;13.07;8.25;;;;;;;21.85;57.69;101178.38;31501087;28;20083;-81
2023/09/27 02:57:19;;;;;;;18.15;10.55;;;;;;;21.76;58.28;101181.97;31512979;28;20097;-77
2023/09/27 03:12:21;;;;;;;31.52;15.48;;;;;;;21.71;58.74;101179.09;31487515;28;20163;-81
2023/09/27 03:27:24;;;;;;;17.17;9.90;;;;;;;21.76;59.00;101181.19;31486226;28;20538;-82
2023/09/27 03:42:26;;;;;;;19.42;9.45;;;;;;;21.68;59.98;101183.56;31464965;28;20048;-82
2023/09/27 03:57:28;;;;;;;20.58;10.38;;;;;;;21.54;61.70;101189.00;31463749;28;20049;-83
2023/09/27 04:12:30;;;;;;;21.15;10.70;;;;;;;21.63;62.29;101194.50;31455448;28;20448;-84
2023/09/27 04:27:33;;;;;;;17.98;9.90;;;;;;;22.06;61.56;101209.75;31451449;28;20066;-83
2023/09/27 04:42:35;;;;;;;32.50;11.00;;;;;;;22.93;60.11;101208.44;31477931;28;20048;-79
2023/09/27 04:57:37;;;;;;;21.25;10.93;;;;;;;23.56;59.39;101208.97;31486416;28;20106;-79
2023/09/27 05:12:40;;;;;;;19.90;10.88;;;;;;;24.26;58.58;101214.47;31486490;28;20083;-80
2023/09/27 05:27:42;;;;;;;19.33;10.35;;;;;;;25.06;57.06;101220.34;31503801;28;20195;-83
2023/09/27 05:42:44;;;;;;;24.15;10.63;;;;;;;26.29;53.80;101223.88;31509905;28;20067;-83
2023/09/27 05:57:46;;;;;;;18.35;10.32;;;;;;;27.96;50.89;101223.97;31517384;28;20091;-82
2023/09/27 06:12:48;;;;;;;17.40;8.50;;;;;;;29.21;47.47;101223.50;31489325;28;20052;-81
2023/09/27 06:27:52;;;;;;;19.87;8.20;;;;;;;30.56;45.46;101231.94;31462785;28;20138;-81
2023/09/27 06:42:54;;;;;;;24.60;10.80;;;;;;;31.42;44.38;101225.97;31509465;28;20118;-86
2023/09/27 06:57:56;;;;;;;19.10;8.93;;;;;;;32.39;43.05;101229.19;31478995;28;20063;-82
2023/09/27 07:13:09;;;;;;;16.45;6.90;;;;;;;33.53;38.67;101231.03;31539841;28;20523;-86
2023/09/27 07:28:11;;;;;;;6.93;4.82;;;;;;;34.65;36.64;101219.31;31503740;28;20082;-83
2023/09/27 07:43:14;;;;;;;11.38;3.55;;;;;;;35.15;35.66;101216.94;31463260;28;20137;-84
2023/09/27 07:58:17;;;;;;;5.32;3.05;;;;;;;35.65;34.00;101214.44;31487592;28;20082;-83
2023/09/27 08:13:19;;;;;;;11.73;2.78;;;;;;;36.37;31.72;101202.50;31472866;28;20110;-83
2023/09/27 08:28:22;;;;;;;10.88;3.17;;;;;;;36.86;31.16;101198.97;31447447;28;20052;-84
2023/09/27 08:43:26;;;;;;;9.85;1.27;;;;;;;36.64;28.50;101182.88;31458365;28;20098;-83
2023/09/27 08:58:29;;;;;;;6.70;2.47;;;;;;;36.37;27.71;101171.41;31494841;28;20048;-81
2023/09/27 09:14:04;;;;;;;4.07;1.42;;;;;;;37.63;26.73;101159.34;31476110;28;20131;-83
2023/09/27 09:29:09;;;;;;;10.40;2.13;;;;;;;36.84;27.32;101157.13;31476707;28;20052;-85
2023/09/27 09:44:22;;;;;;;3.75;1.42;;;;;;;36.28;26.87;101135.28;31497903;28;20045;-85
2023/09/27 09:59:34;;;;;;;2.67;1.45;;;;;;;37.02;26.23;101128.84;31487647;28;20075;-85
2023/09/27 10:14:41;;;;;;;4.65;1.70;;;;;;;37.22;25.96;101116.41;31510965;28;20064;-85
2023/09/27 10:30:00;;;;;;;9.90;2.17;;;;;;;37.01;25.49;101099.81;31490885;28;20053;-83
2023/09/27 10:45:09;;;;;;;3.95;1.98;;;;;;;37.73;25.51;101089.38;31464852;28;20093;-84
2023/09/27 11:00:17;;;;;;;17.67;7.77;;;;;;;37.54;25.34;101090.72;31486271;28;20049;-85
2023/09/27 11:15:23;;;;;;;;;;;;;;;37.25;25.54;101081.28;31458333;28;20068;-82
2023/09/27 11:30:32;;;;;;;7.38;1.95;;;;;;;36.51;25.58;101065.94;31473663;28;20304;-83
2023/09/27 11:45:45;;;;;;;4.78;2.03;;;;;;;36.89;24.81;101048.59;31465922;28;20506;-81
2023/09/27 12:00:48;;;;;;;4.82;1.75;;;;;;;36.36;24.94;101046.28;31478152;28;20053;-79
2023/09/27 12:15:52;;;;;;;6.05;2.15;;;;;;;33.75;26.35;101043.84;31464466;28;20148;-81
2023/09/27 12:30:58;;;;;;;2.65;1.75;;;;;;;33.30;27.71;101027.53;31499014;28;20509;-82
2023/09/27 12:46:03;;;;;;;5.85;2.03;;;;;;;32.98;28.32;101024.34;31456240;28;20060;-78
2023/09/27 13:01:05;;;;;;;7.78;2.75;;;;;;;32.68;28.43;101003.13;31451958;28;20147;-78
2023/09/27 13:16:07;;;;;;;4.00;2.08;;;;;;;32.53;27.94;101003.03;31509575;28;20469;-81
2023/09/27 13:31:09;;;;;;;4.95;2.38;;;;;;;32.49;28.52;100994.94;31510648;28;20515;-80
2023/09/27 13:46:11;;;;;;;4.90;1.90;;;;;;;32.22;28.17;100990.81;31466854;28;20041;-79
2023/09/27 14:01:14;;;;;;;5.45;2.70;;;;;;;32.25;28.45;100972.09;31495634;28;20496;-81
2023/09/27 14:16:16;;;;;;;5.25;2.80;;;;;;;31.97;28.70;100981.94;31504134;28;20070;-83
2023/09/27 14:31:27;;;;;;;6.07;2.80;;;;;;;31.72;28.50;100973.09;31485403;28;20094;-79
2023/09/27 14:46:31;;;;;;;5.70;3.50;;;;;;;31.55;28.55;100969.91;31467078;28;20148;-74
2023/09/27 15:01:33;;;;;;;25.73;8.10;;;;;;;31.35;28.77;100971.34;31483854;28;20037;-83
2023/09/27 15:16:36;;;;;;;8.15;3.03;;;;;;;31.04;28.68;100977.84;31455989;28;20102;-75
2023/09/27 15:31:38;;;;;;;5.20;2.45;;;;;;;30.74;29.13;100984.53;31439223;28;20048;-77
2023/09/27 15:46:43;;;;;;;6.93;2.35;;;;;;;30.53;29.43;101001.19;31459855;28;20496;-83
2023/09/27 16:01:46;;;;;;;19.65;8.52;;;;;;;30.26;30.07;101012.88;31454207;28;20056;-82
2023/09/27 16:16:48;;;;;;;30.05;9.95;;;;;;;30.06;30.11;101005.81;31501823;28;20459;-83
2023/09/27 16:31:51;;;;;;;30.55;12.52;;;;;;;29.87;30.05;101011.44;31456745;28;20071;-81
2023/09/27 16:46:59;;;;;;;42.33;14.20;;;;;;;29.68;30.12;101005.09;31475408;28;20052;-82
2023/09/27 17:02:02;;;;;;;48.55;17.95;;;;;;;29.55;30.57;101014.16;31493742;28;20048;-82
2023/09/27 17:17:05;;;;;;;60.92;20.85;;;;;;;29.32;31.03;101024.84;31493742;28;20059;-79
2023/09/27 17:32:07;;;;;;;51.15;18.88;;;;;;;29.11;31.12;101026.63;31545085;28;20458;-84
2023/09/27 17:47:11;;;;;;;59.30;19.50;;;;;;;28.91;31.58;101033.47;31502870;28;20049;-82
2023/09/27 18:02:14;;;;;;;31.42;12.30;;;;;;;28.79;31.59;101046.78;31492706;28;20289;-82
2023/09/27 18:17:18;;;;;;;9.07;4.05;;;;;;;28.69;31.98;101042.03;31472075;28;20068;-82
2023/09/27 18:32:20;;;;;;;;;;;;;;;28.51;32.63;101032.31;31512711;28;20151;-80
2023/09/27 18:47:22;;;;;;;8.98;4.07;;;;;;;28.19;32.95;101030.00;31480555;28;20443;-78
2023/09/27 19:02:44;;;;;;;;;;;;;;;;;;;;;
2023/09/27 19:18:06;;;;;;;14.82;5.55;;;;;;;27.65;33.63;101034.66;31491449;28;20508;-77
2023/09/27 19:33:16;;;;;;;5.05;2.92;;;;;;;27.33;33.82;101040.59;31481676;28;20048;-78
2023/09/27 19:48:18;;;;;;;5.80;3.07;;;;;;;27.06;34.43;101035.88;31465833;28;20055;-80
2023/09/27 20:03:20;;;;;;;7.20;3.17;;;;;;;26.64;35.36;101032.13;31467748;28;20040;-74
2023/09/27 20:18:25;;;;;;;12.87;5.10;;;;;;;26.59;35.03;101030.09;31453290;28;20059;-77
2023/09/27 20:33:27;;;;;;;12.07;3.65;;;;;;;26.40;35.58;101027.09;31450102;28;20045;-77
2023/09/27 20:48:29;;;;;;;8.33;4.23;;;;;;;26.24;35.74;101030.56;31455748;28;20072;-79
2023/09/27 21:03:31;;;;;;;12.35;4.38;;;;;;;26.03;36.02;101013.34;31450349;28;20380;-79
2023/09/27 21:18:33;;;;;;;10.98;4.75;;;;;;;25.88;36.24;101012.84;31482277;28;20109;-79
2023/09/27 21:33:36;;;;;;;7.88;4.68;;;;;;;25.66;37.03;101012.78;31553959;28;21815;-81
2023/09/27 21:48:38;;;;;;;9.37;5.57;;;;;;;25.61;37.21;101010.72;31530037;28;20054;-80
2023/09/27 22:03:41;;;;;;;56.33;17.08;;;;;;;25.54;37.46;101016.75;31514652;28;20148;-80
2023/09/27 22:18:48;;;;;;;19.77;7.63;;;;;;;25.14;38.74;101007.50;31523036;28;20054;-81
2023/09/27 22:33:51;;;;;;;22.33;7.20;;;;;;;24.67;40.28;101008.97;31503644;28;20110;-80
2023/09/27 22:48:54;;;;;;;20.63;7.88;;;;;;;24.38;41.65;101010.00;31517665;28;20376;-80
2023/09/27 23:03:58;;;;;;;14.10;8.07;;;;;;;24.07;41.72;100992.06;31504920;28;20095;-82
2023/09/27 23:19:00;;;;;;;11.75;6.70;;;;;;;23.85;42.65;100980.78;31526707;28;20059;-80
2023/09/27 23:34:02;;;;;;;12.25;6.32;;;;;;;23.62;44.07;100984.56;31498510;28;20053;-81
2023/09/27 23:49:05;;;;;;;13.75;6.85;;;;;;;23.29;44.91;100982.88;31509554;28;20056;-79
